Wetterstation Vordersexau
Wetterdaten: Woche 07.01.13 - 13.01.13 (KW2)
Datum Zeit Temp. A. Feuchte A. Luftdruck Regen Wind Richtung Taupunkt Windchill Windben
07.01.2013 00:00 5,1 C 86 % 1028,9 hPa 0,0 l/m 0,0 km/h NO 3,0 C 5,1 C 0,0 km/h
07.01.2013 01:00 5,1 C 86 % 1028,8 hPa 0,0 l/m 0,0 km/h O-SO 3,0 C 5,1 C 0,0 km/h
07.01.2013 02:00 5,1 C 85 % 1028,1 hPa 0,0 l/m 0,0 km/h O-SO 2,8 C 5,1 C 0,0 km/h
07.01.2013 03:00 4,9 C 85 % 1027,6 hPa 0,0 l/m 0,0 km/h O-SO 2,6 C 4,9 C 0,0 km/h
07.01.2013 04:00 4,6 C 85 % 1027,4 hPa 0,0 l/m 0,0 km/h O 2,3 C 4,6 C 0,0 km/h
07.01.2013 05:00 3,0 C 86 % 1026,7 hPa 0,0 l/m 0,0 km/h SO 0,9 C 3,0 C 0,0 km/h
07.01.2013 06:00 1,6 C 85 % 1027,0 hPa 0,0 l/m 0,0 km/h SO -0,6 C 1,6 C 0,0 km/h
07.01.2013 07:00 0,6 C 85 % 1027,4 hPa 0,0 l/m 0,0 km/h O-SO -1,6 C 0,6 C 0,0 km/h
07.01.2013 08:00 2,3 C 82 % 1027,5 hPa 0,0 l/m 0,0 km/h NO -0,4 C 2,3 C 0,0 km/h
07.01.2013 09:00 2,7 C 80 % 1027,3 hPa 0,0 l/m 0,6 km/h NW -0,4 C 2,7 C 0,4 km/h
07.01.2013 10:00 3,6 C 77 % 1027,5 hPa 0,0 l/m 2,6 km/h NW -0,0 C 3,6 C 1,4 km/h
07.01.2013 11:00 4,1 C 78 % 1027,6 hPa 0,0 l/m 1,3 km/h NW 0,6 C 4,1 C 0,7 km/h
07.01.2013 12:00 4,3 C 81 % 1027,6 hPa 0,0 l/m 0,0 km/h NW 1,3 C 4,3 C 0,0 km/h
07.01.2013 13:00 4,8 C 83 % 1026,8 hPa 0,0 l/m 0,0 km/h S-SW 2,2 C 4,8 C 0,0 km/h
07.01.2013 14:00 4,7 C 84 % 1026,5 hPa 0,0 l/m 4,5 km/h NW 2,2 C 4,7 C 2,5 km/h
07.01.2013 15:00 5,9 C 86 % 1026,1 hPa 0,0 l/m 3,9 km/h NO 3,7 C 5,9 C 2,2 km/h
07.01.2013 16:00 5,0 C 86 % 1026,1 hPa 0,0 l/m 0,0 km/h NW 2,9 C 5,0 C 0,0 km/h
07.01.2013 17:00 4,4 C 85 % 1026,0 hPa 0,0 l/m 0,6 km/h W-NW 2,1 C 4,4 C 0,4 km/h
07.01.2013 18:00 4,2 C 85 % 1026,5 hPa 0,0 l/m 1,3 km/h W 1,9 C 4,2 C 0,7 km/h
07.01.2013 19:00 3,9 C 85 % 1026,0 hPa 0,0 l/m 0,0 km/h SO 1,6 C 3,9 C 0,0 km/h
07.01.2013 20:00 3,9 C 85 % 1026,0 hPa 0,0 l/m 0,0 km/h O 1,6 C 3,9 C 0,0 km/h
07.01.2013 21:00 3,9 C 85 % 1025,7 hPa 0,0 l/m 0,0 km/h S 1,6 C 3,9 C 0,0 km/h
07.01.2013 22:00 2,9 C 86 % 1025,4 hPa 0,0 l/m 0,0 km/h S 0,8 C 2,9 C 0,0 km/h
07.01.2013 23:00 0,9 C 86 % 1025,5 hPa 0,0 l/m 0,0 km/h S -1,2 C 0,9 C 0,0 km/h
08.01.2013 00:00 -0,2 C 86 % 1025,5 hPa 0,0 l/m 0,0 km/h O-NO -2,3 C -0,2 C 0,0 km/h
08.01.2013 01:00 0,4 C 83 % 1025,0 hPa 0,0 l/m 0,0 km/h S-SO -2,1 C 0,4 C 0,0 km/h
08.01.2013 02:00 0,1 C 83 % 1025,1 hPa 0,0 l/m 0,0 km/h SO -2,4 C 0,1 C 0,0 km/h
08.01.2013 03:00 -0,1 C 81 % 1025,3 hPa 0,0 l/m 0,0 km/h S-SO -3,0 C -0,1 C 0,0 km/h
08.01.2013 04:00 0,0 C 81 % 1025,0 hPa 0,0 l/m 0,0 km/h S-SO -2,9 C 0,0 C 0,0 km/h
08.01.2013 05:00 0,1 C 80 % 1024,8 hPa 0,0 l/m 0,0 km/h S-SO -2,9 C 0,1 C 0,0 km/h
08.01.2013 06:00 0,9 C 79 % 1024,9 hPa 0,0 l/m 0,0 km/h S-SO -2,3 C 0,9 C 0,0 km/h
08.01.2013 07:00 1,3 C 77 % 1025,1 hPa 0,0 l/m 0,0 km/h SW -2,3 C 1,3 C 0,0 km/h
08.01.2013 08:00 1,6 C 76 % 1025,2 hPa 0,0 l/m 0,0 km/h W -2,2 C 1,6 C 0,0 km/h
08.01.2013 09:00 2,1 C 75 % 1024,9 hPa 0,0 l/m 0,0 km/h NW -1,9 C 2,1 C 0,0 km/h
08.01.2013 10:00 2,6 C 75 % 1025,9 hPa 0,0 l/m 1,3 km/h W -1,4 C 2,6 C 0,7 km/h
08.01.2013 11:00 2,8 C 78 % 1026,1 hPa 0,0 l/m 0,0 km/h W-NW -0,6 C 2,8 C 0,0 km/h
08.01.2013 12:00 2,9 C 82 % 1026,0 hPa 0,0 l/m 2,6 km/h W 0,1 C 2,9 C 1,4 km/h
08.01.2013 13:00 3,0 C 85 % 1025,6 hPa 0,0 l/m 0,0 km/h W 0,7 C 3,0 C 0,0 km/h
08.01.2013 14:00 3,0 C 86 % 1025,1 hPa 0,0 l/m 0,0 km/h W-SW 0,9 C 3,0 C 0,0 km/h
08.01.2013 15:00 2,8 C 86 % 1025,2 hPa 0,0 l/m 0,0 km/h NW 0,7 C 2,8 C 0,0 km/h
08.01.2013 16:00 2,6 C 86 % 1025,2 hPa 0,0 l/m 0,6 km/h NO 0,5 C 2,6 C 0,4 km/h
08.01.2013 17:00 2,3 C 86 % 1025,6 hPa 0,0 l/m 0,0 km/h S 0,2 C 2,3 C 0,0 km/h
08.01.2013 18:00 2,2 C 86 % 1025,2 hPa 0,0 l/m 5,8 km/h NO 0,1 C 2,2 C 3,2 km/h
08.01.2013 19:00 2,1 C 86 % 1025,6 hPa 0,0 l/m 0,0 km/h O-NO 0,0 C 2,1 C 0,0 km/h
08.01.2013 20:00 2,0 C 86 % 1025,4 hPa 0,0 l/m 0,0 km/h O-NO -0,1 C 2,0 C 0,0 km/h
08.01.2013 21:00 1,8 C 86 % 1025,5 hPa 0,0 l/m 0,0 km/h NO -0,3 C 1,8 C 0,0 km/h
08.01.2013 22:00 1,8 C 86 % 1025,1 hPa 0,0 l/m 0,0 km/h N-NW -0,3 C 1,8 C 0,0 km/h
08.01.2013 23:00 1,6 C 86 % 1025,2 hPa 0,0 l/m 0,0 km/h NO -0,5 C 1,6 C 0,0 km/h
09.01.2013 00:00 1,6 C 86 % 1024,6 hPa 0,0 l/m 0,0 km/h NO -0,5 C 1,6 C 0,0 km/h
09.01.2013 01:00 1,5 C 86 % 1024,2 hPa 0,0 l/m 0,0 km/h S -0,6 C 1,5 C 0,0 km/h
09.01.2013 02:00 1,5 C 86 % 1023,6 hPa 0,0 l/m 0,0 km/h W -0,6 C 1,5 C 0,0 km/h
09.01.2013 03:00 1,4 C 86 % 1023,7 hPa 0,0 l/m 0,0 km/h W-SW -0,7 C 1,4 C 0,0 km/h
09.01.2013 04:00 1,4 C 85 % 1023,0 hPa 0,0 l/m 0,6 km/h W -0,8 C 1,4 C 0,4 km/h
09.01.2013 05:00 1,3 C 85 % 1022,6 hPa 0,0 l/m 0,0 km/h S-SO -0,9 C 1,3 C 0,0 km/h
09.01.2013 06:00 1,3 C 85 % 1022,2 hPa 0,0 l/m 0,0 km/h S-SO -0,9 C 1,3 C 0,0 km/h
09.01.2013 07:00 1,3 C 85 % 1022,1 hPa 0,0 l/m 0,0 km/h W -0,9 C 1,3 C 0,0 km/h
09.01.2013 08:00 1,3 C 86 % 1021,6 hPa 0,0 l/m 1,3 km/h W-NW -0,8 C 1,3 C 0,7 km/h
09.01.2013 09:00 1,3 C 86 % 1021,5 hPa 0,0 l/m 3,2 km/h W-NW -0,8 C 1,3 C 1,8 km/h
09.01.2013 10:00 1,4 C 86 % 1021,4 hPa 0,0 l/m 0,6 km/h W -0,7 C 1,4 C 0,4 km/h
09.01.2013 11:00 1,9 C 87 % 1021,2 hPa 0,0 l/m 0,0 km/h W -0,0 C 1,9 C 0,0 km/h
09.01.2013 12:00 2,2 C 87 % 1020,5 hPa 0,0 l/m 0,6 km/h W 0,3 C 2,2 C 0,4 km/h
09.01.2013 13:00 2,1 C 86 % 1019,4 hPa 0,0 l/m 2,6 km/h NW 0,0 C 2,1 C 1,4 km/h
09.01.2013 14:00 1,8 C 86 % 1019,2 hPa 0,0 l/m 0,0 km/h N-NW -0,3 C 1,8 C 0,0 km/h
09.01.2013 15:00 1,6 C 86 % 1019,0 hPa 0,0 l/m 2,6 km/h NW -0,5 C 1,6 C 1,4 km/h
09.01.2013 16:00 1,3 C 87 % 1004,4 hPa 0,0 l/m 2,6 km/h NW -0,6 C 1,3 C 1,4 km/h
09.01.2013 17:00 1,1 C 87 % 1018,9 hPa 0,0 l/m 0,0 km/h N-NW -0,8 C 1,1 C 0,0 km/h
09.01.2013 18:00 1,0 C 87 % 1018,6 hPa 0,0 l/m 1,9 km/h N-NW -0,9 C 1,0 C 1,1 km/h
09.01.2013 19:00 0,9 C 87 % 1018,2 hPa 0,0 l/m 0,0 km/h SW -1,0 C 0,9 C 0,0 km/h
09.01.2013 20:00 1,0 C 87 % 1017,9 hPa 0,0 l/m 0,0 km/h N -0,9 C 1,0 C 0,0 km/h
10.01.2013 04:00 1,3 C 85 % 1017,0 hPa 0,0 l/m 0,0 km/h SW -0,9 C 1,3 C 0,0 km/h
10.01.2013 05:00 1,2 C 85 % 1016,5 hPa 0,0 l/m 0,0 km/h S-SW -1,0 C 1,2 C 0,0 km/h
10.01.2013 06:00 1,2 C 84 % 1016,0 hPa 0,0 l/m 0,0 km/h O-NO -1,2 C 1,2 C 0,0 km/h
10.01.2013 07:00 1,3 C 84 % 1015,5 hPa 0,0 l/m 0,0 km/h NW -1,1 C 1,3 C 0,0 km/h
10.01.2013 08:00 1,5 C 83 % 1015,0 hPa 0,0 l/m 1,9 km/h W-NW -1,1 C 1,5 C 1,1 km/h
10.01.2013 09:00 1,6 C 83 % 1014,5 hPa 0,0 l/m 0,0 km/h W -1,0 C 1,6 C 0,0 km/h
10.01.2013 10:00 2,0 C 85 % 1014,0 hPa 0,0 l/m 0,0 km/h S-SO -0,3 C 2,0 C 0,0 km/h
10.01.2013 11:00 2,3 C 85 % 1013,8 hPa 0,0 l/m 0,0 km/h S-SO 0,0 C 2,3 C 0,0 km/h
10.01.2013 12:00 2,6 C 84 % 1013,7 hPa 0,5 l/m 0,0 km/h S 0,2 C 2,6 C 0,0 km/h
10.01.2013 13:00 3,8 C 85 % 1012,9 hPa 2,0 l/m 0,0 km/h W-NW 1,5 C 3,8 C 0,0 km/h
10.01.2013 14:00 3,9 C 87 % 1012,5 hPa 0,0 l/m 9,1 km/h W 1,9 C 1,5 C 5,0 km/h
10.01.2013 15:00 3,8 C 87 % 1011,8 hPa 0,0 l/m 6,5 km/h W 1,8 C 3,7 C 3,6 km/h
10.01.2013 16:00 3,6 C 87 % 1011,6 hPa 0,0 l/m 9,7 km/h W 1,6 C 0,8 C 5,4 km/h
10.01.2013 17:00 3,9 C 86 % 1011,3 hPa 0,0 l/m 9,7 km/h W-NW 1,8 C 1,1 C 5,4 km/h
10.01.2013 18:00 3,9 C 86 % 1011,1 hPa 0,0 l/m 18,8 km/h W 1,8 C -4,1 C 10,4 km/h
10.01.2013 19:00 3,8 C 87 % 1010,7 hPa 0,0 l/m 5,2 km/h W 1,8 C 3,8 C 2,9 km/h
10.01.2013 20:00 3,3 C 86 % 1010,8 hPa 0,5 l/m 5,2 km/h W 1,2 C 3,3 C 2,9 km/h
10.01.2013 21:00 3,2 C 84 % 1010,7 hPa 0,5 l/m 1,3 km/h N 0,8 C 3,2 C 0,7 km/h
10.01.2013 22:00 3,2 C 83 % 1010,5 hPa 0,5 l/m 0,0 km/h N 0,6 C 3,2 C 0,0 km/h
10.01.2013 23:00 3,1 C 82 % 1010,4 hPa 0,5 l/m 0,0 km/h N 0,3 C 3,1 C 0,0 km/h
11.01.2013 00:00 3,1 C 82 % 1010,3 hPa 0,5 l/m 0,0 km/h O-NO 0,3 C 3,1 C 0,0 km/h
11.01.2013 01:00 3,3 C 81 % 1010,2 hPa 0,0 l/m 0,0 km/h NO 0,4 C 3,3 C 0,0 km/h
11.01.2013 02:00 3,2 C 81 % 1010,1 hPa 1,5 l/m 0,0 km/h NO 0,3 C 3,2 C 0,0 km/h
11.01.2013 03:00 3,3 C 80 % 1010,0 hPa 0,5 l/m 0,0 km/h S-SO 0,2 C 3,3 C 0,0 km/h
11.01.2013 04:00 2,9 C 80 % 1010,0 hPa 0,0 l/m 0,0 km/h SO -0,2 C 2,9 C 0,0 km/h
11.01.2013 05:00 2,9 C 80 % 1009,8 hPa 0,5 l/m 0,0 km/h S-SO -0,2 C 2,9 C 0,0 km/h
11.01.2013 06:00 2,3 C 80 % 1009,6 hPa 0,0 l/m 0,0 km/h S-SO -0,8 C 2,3 C 0,0 km/h
11.01.2013 07:00 1,8 C 80 % 1009,4 hPa 0,0 l/m 0,0 km/h NO -1,3 C 1,8 C 0,0 km/h
11.01.2013 08:00 2,2 C 79 % 1009,4 hPa 0,0 l/m 0,0 km/h NO -1,1 C 2,2 C 0,0 km/h
11.01.2013 09:00 3,1 C 75 % 1012,6 hPa 0,0 l/m 0,0 km/h W -0,9 C 3,1 C 0,0 km/h
11.01.2013 10:00 3,9 C 78 % 1013,2 hPa 0,0 l/m 0,0 km/h S-SO 0,4 C 3,9 C 0,0 km/h
11.01.2013 11:00 4,8 C 81 % 1013,9 hPa 0,0 l/m 0,0 km/h NO 1,8 C 4,8 C 0,0 km/h
11.01.2013 12:00 4,4 C 86 % 1013,7 hPa 0,0 l/m 1,9 km/h NO 2,3 C 4,4 C 1,1 km/h
11.01.2013 13:00 3,9 C 87 % 1014,0 hPa 0,0 l/m 0,0 km/h NO 1,9 C 3,9 C 0,0 km/h
11.01.2013 14:00 4,4 C 86 % 1014,3 hPa 0,0 l/m 0,0 km/h NO 2,3 C 4,4 C 0,0 km/h
11.01.2013 15:00 4,4 C 86 % 1014,6 hPa 0,0 l/m 0,0 km/h NO 2,3 C 4,4 C 0,0 km/h
11.01.2013 16:00 3,6 C 86 % 1014,9 hPa 0,0 l/m 0,0 km/h NO 1,5 C 3,6 C 0,0 km/h
11.01.2013 17:00 3,0 C 87 % 1015,0 hPa 0,0 l/m 0,0 km/h NO 1,1 C 3,0 C 0,0 km/h
11.01.2013 18:00 2,9 C 86 % 1015,4 hPa 0,0 l/m 0,0 km/h NO 0,8 C 2,9 C 0,0 km/h
11.01.2013 19:00 2,8 C 86 % 1015,4 hPa 0,0 l/m 0,0 km/h SO 0,7 C 2,8 C 0,0 km/h
11.01.2013 20:00 2,9 C 85 % 1015,2 hPa 0,0 l/m 0,0 km/h W 0,6 C 2,9 C 0,0 km/h
11.01.2013 21:00 3,3 C 84 % 1015,1 hPa 0,0 l/m 5,2 km/h W 0,9 C 3,3 C 2,9 km/h
11.01.2013 22:00 2,9 C 86 % 1015,6 hPa 0,0 l/m 1,9 km/h W-NW 0,8 C 2,9 C 1,1 km/h
11.01.2013 23:00 2,8 C 86 % 1015,8 hPa 0,0 l/m 11,0 km/h W 0,7 C -1,1 C 6,1 km/h
12.01.2013 00:00 2,4 C 86 % 1015,8 hPa 0,5 l/m 11,0 km/h W 0,3 C -1,5 C 6,1 km/h
12.01.2013 01:00 2,3 C 85 % 1015,6 hPa 0,5 l/m 0,0 km/h W 0,0 C 2,3 C 0,0 km/h
12.01.2013 02:00 2,3 C 85 % 1015,5 hPa 0,0 l/m 0,0 km/h S-SW 0,0 C 2,3 C 0,0 km/h
12.01.2013 03:00 1,9 C 84 % 1014,8 hPa 0,0 l/m 0,0 km/h SO -0,5 C 1,9 C 0,0 km/h
12.01.2013 04:00 1,8 C 83 % 1014,6 hPa 0,0 l/m 0,0 km/h O-SO -0,8 C 1,8 C 0,0 km/h
12.01.2013 05:00 1,6 C 83 % 1014,1 hPa 0,0 l/m 0,0 km/h SO -1,0 C 1,6 C 0,0 km/h
12.01.2013 06:00 1,3 C 82 % 1014,2 hPa 0,0 l/m 0,0 km/h O-SO -1,4 C 1,3 C 0,0 km/h
12.01.2013 07:00 1,4 C 81 % 1014,4 hPa 0,0 l/m 0,0 km/h SO -1,5 C 1,4 C 0,0 km/h
12.01.2013 08:00 1,5 C 80 % 1014,1 hPa 0,0 l/m 0,0 km/h O-NO -1,6 C 1,5 C 0,0 km/h
12.01.2013 09:00 0,9 C 80 % 1014,1 hPa 0,0 l/m 0,0 km/h O -2,2 C 0,9 C 0,0 km/h
12.01.2013 10:00 2,9 C 78 % 1014,2 hPa 0,0 l/m 0,0 km/h O-SO -0,5 C 2,9 C 0,0 km/h
12.01.2013 11:00 4,3 C 85 % 1014,0 hPa 0,0 l/m 0,0 km/h NW 2,0 C 4,3 C 0,0 km/h
12.01.2013 12:00 6,5 C 80 % 1013,3 hPa 0,0 l/m 17,5 km/h N 3,3 C -0,2 C 9,7 km/h
12.01.2013 13:00 6,1 C 80 % 1012,9 hPa 0,0 l/m 3,2 km/h N-NW 2,9 C 6,1 C 1,8 km/h
12.01.2013 14:00 6,1 C 79 % 1012,5 hPa 0,0 l/m 0,0 km/h NW 2,7 C 6,1 C 0,0 km/h
12.01.2013 15:00 3,8 C 83 % 1012,6 hPa 0,0 l/m 2,6 km/h NW 1,2 C 3,8 C 1,4 km/h
12.01.2013 16:00 1,6 C 86 % 1012,4 hPa 0,0 l/m 3,9 km/h NW -0,5 C 1,6 C 2,2 km/h
12.01.2013 17:00 0,9 C 86 % 1012,7 hPa 0,0 l/m 0,0 km/h NW -1,2 C 0,9 C 0,0 km/h
12.01.2013 18:00 1,1 C 84 % 1012,5 hPa 0,0 l/m 0,0 km/h NW -1,3 C 1,1 C 0,0 km/h
12.01.2013 19:00 0,6 C 84 % 1012,7 hPa 0,0 l/m 9,7 km/h N-NO -1,8 C -2,5 C 5,4 km/h
12.01.2013 20:00 0,4 C 83 % 1012,5 hPa 0,0 l/m 0,0 km/h W-NW -2,1 C 0,4 C 0,0 km/h
12.01.2013 21:00 0,4 C 82 % 1012,5 hPa 0,0 l/m 0,0 km/h NW -2,3 C 0,4 C 0,0 km/h
12.01.2013 22:00 0,3 C 82 % 1012,5 hPa 0,0 l/m 0,6 km/h NW -2,4 C 0,3 C 0,4 km/h
12.01.2013 23:00 0,2 C 82 % 1012,3 hPa 0,0 l/m 0,0 km/h NW -2,5 C 0,2 C 0,0 km/h
13.01.2013 00:00 -0,2 C 83 % 1012,3 hPa 0,0 l/m 1,3 km/h NW -2,7 C -0,2 C 0,7 km/h
13.01.2013 01:00 -0,2 C 82 % 1012,1 hPa 0,0 l/m 0,0 km/h N-NW -2,9 C -0,2 C 0,0 km/h
13.01.2013 02:00 -0,4 C 81 % 1012,0 hPa 0,0 l/m 0,0 km/h NW -3,3 C -0,4 C 0,0 km/h
13.01.2013 03:00 -0,4 C 81 % 1011,8 hPa 0,0 l/m 0,0 km/h W-NW -3,3 C -0,4 C 0,0 km/h
13.01.2013 04:00 -0,4 C 80 % 1011,6 hPa 0,0 l/m 0,0 km/h NW -3,4 C -0,4 C 0,0 km/h
13.01.2013 05:00 -0,5 C 79 % 1011,4 hPa 0,0 l/m 0,0 km/h NW -3,7 C -0,5 C 0,0 km/h
13.01.2013 06:00 -0,5 C 79 % 1011,2 hPa 0,0 l/m 0,0 km/h NW -3,7 C -0,5 C 0,0 km/h
13.01.2013 07:00 -0,2 C 79 % 1011,0 hPa 0,0 l/m 0,0 km/h NW -3,4 C -0,2 C 0,0 km/h
13.01.2013 08:00 -0,4 C 80 % 1011,0 hPa 0,0 l/m 0,0 km/h NW -3,4 C -0,4 C 0,0 km/h
13.01.2013 09:00 -0,3 C 80 % 1010,7 hPa 0,0 l/m 0,6 km/h NW -3,3 C -0,3 C 0,4 km/h
13.01.2013 10:00 0,1 C 82 % 1010,5 hPa 0,0 l/m 0,0 km/h NW -2,6 C 0,1 C 0,0 km/h
13.01.2013 11:00 0,6 C 85 % 1010,3 hPa 0,0 l/m 0,0 km/h N -1,6 C 0,6 C 0,0 km/h
13.01.2013 12:00 0,9 C 87 % 1010,2 hPa 0,0 l/m 0,0 km/h NW -1,0 C 0,9 C 0,0 km/h
13.01.2013 13:00 0,7 C 87 % 1010,0 hPa 0,0 l/m 6,5 km/h N-NW -1,2 C 0,6 C 3,6 km/h
13.01.2013 14:00 0,1 C 87 % 1010,5 hPa 0,0 l/m 0,0 km/h NW -1,8 C 0,1 C 0,0 km/h
13.01.2013 15:00 -0,1 C 87 % 1010,4 hPa 0,0 l/m 1,3 km/h NW -2,0 C -0,1 C 0,7 km/h
13.01.2013 16:00 0,1 C 87 % 1010,4 hPa 0,0 l/m 0,0 km/h NW -1,8 C 0,1 C 0,0 km/h
13.01.2013 17:00 0,1 C 87 % 1010,5 hPa 0,0 l/m 0,0 km/h NO -1,8 C 0,1 C 0,0 km/h
13.01.2013 18:00 0,1 C 86 % 1010,5 hPa 0,0 l/m 0,0 km/h N-NW -2,0 C 0,1 C 0,0 km/h
13.01.2013 19:00 -0,1 C 87 % 1010,5 hPa 0,0 l/m 0,0 km/h N-NW -2,0 C -0,1 C 0,0 km/h
13.01.2013 20:00 -0,5 C 87 % 1010,4 hPa 0,0 l/m 0,0 km/h NW -2,4 C -0,5 C 0,0 km/h
13.01.2013 21:00 -0,7 C 87 % 1010,3 hPa 0,0 l/m 0,0 km/h NW -2,6 C -0,7 C 0,0 km/h
13.01.2013 22:00 -0,8 C 87 % 1010,2 hPa 0,0 l/m 1,3 km/h NW -2,7 C -0,8 C 0,7 km/h
13.01.2013 23:00 -0,8 C 87 % 1010,1 hPa 0,0 l/m 0,0 km/h W -2,7 C -0,8 C 0,0 km/h
Min-Datum _ 13.01.13 08.01.13 09.01.13 - 07.01.13 - 13.01.13 10.01.13 07.01.13
_ Min-Zeit 22:19 09:19 16:19 - 00:19 - 05:19 18:19 00:19
Minimum _ -0,8 C 75 % 991,8 hPa - 0,0 km/h - -3,7 C -4,1 C 0,0 km/h
Max-Datum _ 12.01.13 09.01.13 07.01.13 10.01.13 10.01.13 - 07.01.13 12.01.13 10.01.13
_ Max-Zeit 12:19 11:19 00:19 13:19 18:19 - 15:19 13:19 18:19
Maximum _ 6,5 C 87 % 1028,9 hPa 2,0 l/m 18,8 km/h
W
- 3,7 C 6,1 C 10,4 km/h
W
Durchschnitt _ 2,1 C 84 % 1017,6 hPa #8,5 l/m 1,2 km/h NW -0,3 C 1,9 C 0,7 km/h
www.sexauwetter.de